createdAt,value
2022-10-17T00:02:07.234Z,11.91
2022-10-17T00:07:01.169Z,11.83
2022-10-17T00:09:27.616Z,11.77
2022-10-17T00:11:54.255Z,11.89
2022-10-17T00:14:20.732Z,11.85
2022-10-17T00:16:47.163Z,11.82
2022-10-17T00:19:13.635Z,11.79
2022-10-17T00:21:40.173Z,11.69
2022-10-17T00:24:06.837Z,11.55
2022-10-17T00:26:33.344Z,11.77
2022-10-17T00:28:59.875Z,11.79
2022-10-17T00:31:26.370Z,11.75
2022-10-17T00:33:53.280Z,11.68
2022-10-17T00:36:24.787Z,11.54
2022-10-17T00:38:56.715Z,11.51
2022-10-17T00:41:26.051Z,11.42
2022-10-17T00:43:57.156Z,11.53
2022-10-17T00:46:26.116Z,11.34
2022-10-17T00:48:54.040Z,11.45
2022-10-17T00:51:26.354Z,11.39
2022-10-17T00:53:52.915Z,11.40
2022-10-17T00:56:20.335Z,11.36
2022-10-17T00:58:47.714Z,11.27
2022-10-17T01:01:14.287Z,11.31
2022-10-17T01:03:40.827Z,11.16
2022-10-17T01:06:07.295Z,11.11
2022-10-17T01:08:33.805Z,11.04
2022-10-17T01:11:18.648Z,10.95
2022-10-17T01:13:48.430Z,11.06
2022-10-17T01:16:22.159Z,11.11
2022-10-17T01:19:01.413Z,11.08
2022-10-17T01:21:31.643Z,11.32
2022-10-17T01:24:16.552Z,11.21
2022-10-17T01:26:55.442Z,11.26
2022-10-17T01:29:33.989Z,11.25
2022-10-17T01:32:18.666Z,11.21
2022-10-17T01:34:54.607Z,10.98
2022-10-17T01:37:39.759Z,10.77
2022-10-17T01:40:10.597Z,10.71
2022-10-17T01:42:42.797Z,10.72
2022-10-17T01:45:16.899Z,10.86
2022-10-17T01:47:43.856Z,10.79
2022-10-17T01:50:18.534Z,10.76
2022-10-17T01:52:48.839Z,10.63
2022-10-17T01:55:20.450Z,10.63
2022-10-17T01:58:11.545Z,10.57
2022-10-17T02:00:38.491Z,10.60
2022-10-17T02:03:06.806Z,10.46
2022-10-17T02:05:36.753Z,10.48
2022-10-17T02:08:04.123Z,10.43
2022-10-17T02:10:43.847Z,10.48
2022-10-17T02:13:40.127Z,10.42
2022-10-17T02:16:44.362Z,10.44
2022-10-17T02:19:47.212Z,10.50
2022-10-17T02:22:41.504Z,10.49
2022-10-17T02:25:13.980Z,10.64
2022-10-17T02:27:47.755Z,10.59
2022-10-17T02:30:31.053Z,10.68
2022-10-17T02:33:05.876Z,10.71
2022-10-17T02:35:36.138Z,10.61
2022-10-17T02:38:04.014Z,10.54
2022-10-17T02:40:31.739Z,10.62
2022-10-17T02:42:59.337Z,10.69
2022-10-17T02:45:27.659Z,10.46
2022-10-17T02:48:15.615Z,10.56
2022-10-17T02:50:49.464Z,10.28
2022-10-17T02:53:23.920Z,10.42
2022-10-17T02:55:58.484Z,10.51
2022-10-17T02:58:29.041Z,10.51
2022-10-17T03:00:55.614Z,10.47
2022-10-17T03:03:27.687Z,10.36
2022-10-17T03:05:54.518Z,10.41
2022-10-17T03:08:21.404Z,10.43
2022-10-17T03:10:47.998Z,10.64
2022-10-17T03:13:15.277Z,10.47
2022-10-17T03:15:41.749Z,10.31
2022-10-17T03:18:08.446Z,10.30
2022-10-17T03:20:34.958Z,10.41
2022-10-17T03:23:01.524Z,10.42
2022-10-17T03:25:28.067Z,10.31
2022-10-17T03:27:54.846Z,10.34
2022-10-17T03:30:21.289Z,10.37
2022-10-17T03:32:47.722Z,10.51
2022-10-17T03:35:15.025Z,10.56
2022-10-17T03:37:41.724Z,10.48
2022-10-17T03:40:08.454Z,10.37
2022-10-17T03:42:34.928Z,10.25
2022-10-17T03:45:01.362Z,10.33
2022-10-17T03:47:28.988Z,10.44
2022-10-17T03:49:55.740Z,10.43
2022-10-17T03:52:22.292Z,10.37
2022-10-17T03:54:49.994Z,10.42
2022-10-17T03:57:17.109Z,10.60
2022-10-17T03:59:43.533Z,10.45
2022-10-17T04:02:09.972Z,10.23
2022-10-17T04:04:36.449Z,10.25
2022-10-17T04:07:03.060Z,10.25
2022-10-17T04:09:29.491Z,10.22
2022-10-17T04:11:55.966Z,10.31
2022-10-17T04:14:22.414Z,10.35
2022-10-17T04:16:48.857Z,10.24
2022-10-17T04:19:15.473Z,10.12
2022-10-17T04:21:41.890Z,10.16
2022-10-17T04:24:10.451Z,10.22
2022-10-17T04:26:36.922Z,10.28
2022-10-17T04:29:03.367Z,10.44
2022-10-17T04:31:29.842Z,10.55
2022-10-17T04:33:56.311Z,10.70
2022-10-17T04:36:23.409Z,10.73
2022-10-17T04:38:49.843Z,10.66
2022-10-17T04:41:17.726Z,10.43
2022-10-17T04:43:47.015Z,10.26
2022-10-17T04:46:16.990Z,10.23
2022-10-17T04:48:43.483Z,10.20
2022-10-17T04:51:18.774Z,10.34
2022-10-17T04:53:47.206Z,10.38
2022-10-17T04:56:17.042Z,10.38
2022-10-17T04:58:44.012Z,10.36
2022-10-17T05:01:13.068Z,10.46
2022-10-17T05:03:40.533Z,10.48
2022-10-17T05:06:12.283Z,10.49
2022-10-17T05:08:39.066Z,10.55
2022-10-17T05:11:06.319Z,10.62
2022-10-17T05:13:33.276Z,10.65
2022-10-17T05:16:00.966Z,10.71
2022-10-17T05:18:28.894Z,10.72
2022-10-17T05:20:55.492Z,10.74
2022-10-17T05:23:21.963Z,10.71
2022-10-17T05:25:48.446Z,10.76
2022-10-17T05:28:14.883Z,10.84
2022-10-17T05:30:41.393Z,10.99
2022-10-17T05:33:09.096Z,11.04
2022-10-17T05:35:36.048Z,11.08
2022-10-17T05:38:02.552Z,11.30
2022-10-17T05:40:28.987Z,11.26
2022-10-17T05:42:55.481Z,10.96
2022-10-17T05:45:22.164Z,10.80
2022-10-17T05:47:48.655Z,10.66
2022-10-17T05:50:15.170Z,10.68
2022-10-17T05:52:43.912Z,10.45
2022-10-17T05:55:13.049Z,10.45
2022-10-17T05:57:39.494Z,10.53
2022-10-17T06:00:06.701Z,10.60
2022-10-17T06:02:33.612Z,10.97
2022-10-17T06:05:00.249Z,11.10
2022-10-17T06:07:26.725Z,10.87
2022-10-17T06:09:53.199Z,10.94
2022-10-17T06:12:19.634Z,10.87
2022-10-17T06:14:46.093Z,10.85
2022-10-17T06:17:15.960Z,10.87
2022-10-17T06:19:44.425Z,11.02
2022-10-17T06:22:10.988Z,11.07
2022-10-17T06:24:37.405Z,11.21
2022-10-17T06:27:08.048Z,11.32
2022-10-17T06:29:38.519Z,11.54
2022-10-17T06:32:05.209Z,11.43
2022-10-17T06:34:31.709Z,11.43
2022-10-17T06:36:58.217Z,11.63
2022-10-17T06:39:26.879Z,11.73
2022-10-17T06:41:53.345Z,11.82
2022-10-17T06:44:19.826Z,11.97
2022-10-17T06:46:46.262Z,11.96
2022-10-17T06:49:12.706Z,12.08
2022-10-17T06:51:39.191Z,12.22
2022-10-17T06:54:05.718Z,12.22
2022-10-17T06:56:32.155Z,12.40
2022-10-17T06:58:58.653Z,12.32
2022-10-17T07:01:25.452Z,12.37
2022-10-17T07:03:52.285Z,12.41
2022-10-17T07:06:19.155Z,12.33
2022-10-17T07:08:46.100Z,12.39
2022-10-17T07:11:17.258Z,12.63
2022-10-17T07:13:44.110Z,12.74
2022-10-17T07:16:11.417Z,12.79
2022-10-17T07:18:38.737Z,12.78
2022-10-17T07:21:05.901Z,12.99
2022-10-17T07:23:34.297Z,13.11
2022-10-17T07:26:02.316Z,13.58
2022-10-17T07:28:29.196Z,13.84
2022-10-17T07:31:03.718Z,14.09
2022-10-17T07:33:30.197Z,14.39
2022-10-17T07:35:59.474Z,14.64
2022-10-17T07:38:26.451Z,15.04
2022-10-17T07:40:56.502Z,15.35
2022-10-17T07:43:24.251Z,15.09
2022-10-17T07:45:50.880Z,14.88
2022-10-17T07:48:19.908Z,14.86
2022-10-17T07:50:46.613Z,14.69
2022-10-17T07:53:13.092Z,14.71
2022-10-17T07:55:40.532Z,14.77
2022-10-17T07:58:07.256Z,14.77
2022-10-17T08:00:33.799Z,14.61
2022-10-17T08:03:00.393Z,14.47
2022-10-17T08:05:27.131Z,14.31
2022-10-17T08:07:53.573Z,14.24
2022-10-17T08:10:20.297Z,14.30
2022-10-17T08:12:46.838Z,14.62
2022-10-17T08:15:13.601Z,15.09
2022-10-17T08:17:41.464Z,15.34
2022-10-17T08:20:08.167Z,15.73
2022-10-17T08:22:34.932Z,15.89
2022-10-17T08:25:01.412Z,15.85
2022-10-17T08:27:28.878Z,15.41
2022-10-17T08:29:55.511Z,15.40
2022-10-17T08:32:24.957Z,15.35
2022-10-17T08:34:52.061Z,15.42
2022-10-17T08:37:18.592Z,15.41
2022-10-17T08:39:45.208Z,15.29
2022-10-17T08:42:11.547Z,15.42
2022-10-17T08:45:02.415Z,15.58
2022-10-17T08:47:43.459Z,15.70
2022-10-17T08:50:31.503Z,15.54
2022-10-17T08:53:03.392Z,15.45
2022-10-17T08:55:37.833Z,14.93
2022-10-17T08:58:21.182Z,14.89
2022-10-17T09:00:54.173Z,14.83
2022-10-17T09:03:37.139Z,14.92
2022-10-17T09:06:13.307Z,15.06
2022-10-17T09:08:51.748Z,15.14
2022-10-17T09:11:37.499Z,15.32
2022-10-17T09:14:06.698Z,15.81
2022-10-17T09:16:45.354Z,15.94
2022-10-17T09:19:28.544Z,16.42
2022-10-17T09:22:00.069Z,16.11
2022-10-17T09:24:47.515Z,16.33
2022-10-17T09:27:23.416Z,16.22
2022-10-17T09:29:52.934Z,16.45
2022-10-17T09:32:23.011Z,16.79
2022-10-17T09:34:49.631Z,16.66
2022-10-17T09:37:17.001Z,16.70
2022-10-17T09:39:44.232Z,16.97
2022-10-17T09:42:14.967Z,17.00
2022-10-17T09:45:01.564Z,17.18
2022-10-17T09:47:47.643Z,17.02
2022-10-17T09:50:23.054Z,16.75
2022-10-17T09:52:50.864Z,17.04
2022-10-17T09:55:21.435Z,17.34
2022-10-17T09:57:58.375Z,17.43
2022-10-17T10:00:29.087Z,17.18
2022-10-17T10:03:15.587Z,16.73
2022-10-17T10:05:43.462Z,16.34
2022-10-17T10:08:17.970Z,16.17
2022-10-17T10:10:45.247Z,16.15
2022-10-17T10:13:14.787Z,16.10
2022-10-17T10:15:43.736Z,16.05
2022-10-17T10:21:13.380Z,16.05
2022-10-17T10:23:42.446Z,16.18
2022-10-17T10:26:24.039Z,16.24
2022-10-17T10:28:53.799Z,16.19
2022-10-17T10:31:27.320Z,16.24
2022-10-17T10:33:56.859Z,16.35
2022-10-17T10:36:24.523Z,16.55
2022-10-17T10:38:57.158Z,16.64
2022-10-17T10:41:27.732Z,16.74
2022-10-17T10:43:55.024Z,16.71
2022-10-17T10:46:27.389Z,16.57
2022-10-17T10:48:59.753Z,16.41
2022-10-17T10:51:34.543Z,16.72
2022-10-17T10:54:23.995Z,16.84
2022-10-17T10:56:53.578Z,17.11
2022-10-17T10:59:27.249Z,17.67
2022-10-17T11:02:13.204Z,17.79
2022-10-17T11:05:01.350Z,17.78
2022-10-17T11:07:46.122Z,17.74
2022-10-17T11:10:37.876Z,17.66
2022-10-17T11:13:11.839Z,17.60
2022-10-17T11:15:41.995Z,17.43
2022-10-17T11:18:33.046Z,17.39
2022-10-17T11:21:21.255Z,17.25
2022-10-17T11:23:52.226Z,17.46
2022-10-17T11:26:26.693Z,17.78
2022-10-17T11:28:54.377Z,18.32
2022-10-17T11:31:22.494Z,18.66
2022-10-17T11:34:12.117Z,18.75
2022-10-17T11:36:42.082Z,18.92
2022-10-17T11:39:16.169Z,19.11
2022-10-17T11:41:45.715Z,18.69
2022-10-17T11:44:17.973Z,18.48
2022-10-17T11:46:46.360Z,18.96
2022-10-17T11:49:25.197Z,18.74
2022-10-17T11:52:00.407Z,18.73
2022-10-17T11:54:54.334Z,18.67
2022-10-17T11:57:37.332Z,18.74
2022-10-17T12:00:41.721Z,19.04
2022-10-17T12:03:45.877Z,18.80
2022-10-17T12:06:17.747Z,18.42
2022-10-17T12:08:47.235Z,18.35
2022-10-17T12:11:37.188Z,18.01
2022-10-17T12:14:05.766Z,17.83
2022-10-17T12:16:35.449Z,17.92
2022-10-17T12:19:02.901Z,17.85
2022-10-17T12:22:02.406Z,17.74
2022-10-17T12:24:35.842Z,17.81
2022-10-17T12:27:29.839Z,17.80
2022-10-17T12:30:05.669Z,18.03
2022-10-17T12:32:47.030Z,17.96
2022-10-17T12:35:22.170Z,18.29
2022-10-17T12:37:48.473Z,18.36
2022-10-17T12:40:36.541Z,18.34
2022-10-17T12:43:15.322Z,18.51
2022-10-17T12:45:48.023Z,18.60
2022-10-17T12:48:33.090Z,18.58
2022-10-17T12:51:35.385Z,18.54
2022-10-17T12:54:10.598Z,18.34
2022-10-17T12:56:55.665Z,18.47
2022-10-17T12:59:28.541Z,18.46
2022-10-17T13:01:58.786Z,18.48
2022-10-17T13:04:25.827Z,18.41
2022-10-17T13:06:55.113Z,18.31
2022-10-17T13:09:27.570Z,18.13
2022-10-17T13:11:55.091Z,18.16
2022-10-17T13:14:23.113Z,18.34
2022-10-17T13:16:58.240Z,18.42
2022-10-17T13:19:30.659Z,18.67
2022-10-17T13:22:06.082Z,18.74
2022-10-17T13:24:38.798Z,18.82
2022-10-17T13:27:07.232Z,18.82
2022-10-17T13:29:33.851Z,18.88
2022-10-17T13:32:03.854Z,18.82
2022-10-17T13:34:32.678Z,18.88
2022-10-17T13:37:04.666Z,18.98
2022-10-17T13:39:54.393Z,18.91
2022-10-17T13:42:45.409Z,18.96
2022-10-17T13:45:25.115Z,19.06
2022-10-17T13:47:51.650Z,19.09
2022-10-17T13:50:43.031Z,19.31
2022-10-17T13:53:12.969Z,19.44
2022-10-17T13:56:09.117Z,19.33
2022-10-17T13:58:49.038Z,19.32
2022-10-17T14:01:21.363Z,19.22
2022-10-17T14:03:51.761Z,19.15
2022-10-17T14:06:30.044Z,19.03
2022-10-17T14:09:05.394Z,19.10
2022-10-17T14:11:40.758Z,19.13
2022-10-17T14:14:29.114Z,19.12
2022-10-17T14:16:57.493Z,19.08
2022-10-17T14:19:30.602Z,19.02
2022-10-17T14:22:20.034Z,19.03
2022-10-17T14:24:46.949Z,18.96
2022-10-17T14:27:46.572Z,18.87
2022-10-17T14:33:50.857Z,18.78
2022-10-17T14:36:44.115Z,18.79
2022-10-17T14:39:22.708Z,18.88
2022-10-17T14:41:52.271Z,18.76
2022-10-17T14:44:25.722Z,18.72
2022-10-17T14:46:59.437Z,18.65
2022-10-17T14:49:33.870Z,18.57
2022-10-17T14:52:24.830Z,18.54
2022-10-17T14:54:51.492Z,18.49
2022-10-17T14:57:50.180Z,18.47
2022-10-17T15:00:18.464Z,18.41
2022-10-17T15:02:45.987Z,18.33
2022-10-17T15:05:15.473Z,18.31
2022-10-17T15:07:42.653Z,18.32
2022-10-17T15:10:26.471Z,18.27
2022-10-17T15:13:27.662Z,18.25
2022-10-17T15:15:55.425Z,18.22
2022-10-17T15:18:21.895Z,18.23
2022-10-17T15:20:52.664Z,18.21
2022-10-17T15:23:27.175Z,18.15
2022-10-17T15:25:53.774Z,18.11
2022-10-17T15:28:20.411Z,18.08
2022-10-17T15:30:46.914Z,18.05
2022-10-17T15:33:13.388Z,18.05
2022-10-17T15:35:39.837Z,18.04
2022-10-17T15:38:07.063Z,17.99
2022-10-17T15:40:34.537Z,17.95
2022-10-17T15:43:01.064Z,17.91
2022-10-17T15:45:29.966Z,17.89
2022-10-17T15:48:01.842Z,17.84
2022-10-17T15:50:30.573Z,17.81
2022-10-17T15:52:57.080Z,17.79
2022-10-17T15:55:23.570Z,17.76
2022-10-17T15:57:50.035Z,17.74
2022-10-17T16:00:19.243Z,17.76
2022-10-17T16:02:46.466Z,17.72
2022-10-17T16:05:16.282Z,17.70
2022-10-17T16:07:48.368Z,17.65
2022-10-17T16:10:15.586Z,17.59
2022-10-17T16:12:42.875Z,17.52
2022-10-17T16:15:14.372Z,17.51
2022-10-17T16:17:41.664Z,17.46
2022-10-17T16:20:11.135Z,17.44
2022-10-17T16:22:38.117Z,17.42
2022-10-17T16:25:10.132Z,17.41
2022-10-17T16:27:37.258Z,17.40
2022-10-17T16:30:07.883Z,17.40
2022-10-17T16:32:34.387Z,17.34
2022-10-17T16:35:01.870Z,17.33
2022-10-17T16:37:28.329Z,17.29
2022-10-17T16:39:55.058Z,17.30
2022-10-17T16:42:21.529Z,17.30
2022-10-17T16:44:50.226Z,17.25
2022-10-17T16:47:17.879Z,17.28
2022-10-17T16:49:45.433Z,17.30
2022-10-17T16:52:12.219Z,17.25
2022-10-17T16:54:38.664Z,17.20
2022-10-17T16:57:05.291Z,17.20
2022-10-17T16:59:31.747Z,17.16
2022-10-17T17:01:59.813Z,17.16
2022-10-17T17:04:26.378Z,17.16
2022-10-17T17:06:52.885Z,17.11
2022-10-17T17:09:19.327Z,17.15
2022-10-17T17:11:45.917Z,17.15
2022-10-17T17:14:12.678Z,17.17
2022-10-17T17:16:39.136Z,17.18
2022-10-17T17:19:10.917Z,17.14
2022-10-17T17:21:37.412Z,17.13
2022-10-17T17:24:04.466Z,17.16
2022-10-17T17:26:36.252Z,17.15
2022-10-17T17:29:03.281Z,17.12
2022-10-17T17:31:31.639Z,17.13
2022-10-17T17:33:58.529Z,17.15
2022-10-17T17:36:27.252Z,17.12
2022-10-17T17:38:57.919Z,17.17
2022-10-17T17:41:26.637Z,17.18
2022-10-17T17:43:53.704Z,17.21
2022-10-17T17:46:21.370Z,17.24
2022-10-17T17:48:48.927Z,17.25
2022-10-17T17:51:29.054Z,17.27
2022-10-17T17:53:56.251Z,17.32
2022-10-17T17:56:25.101Z,17.38
2022-10-17T17:59:01.740Z,17.41
2022-10-17T18:01:37.871Z,17.41
2022-10-17T18:04:06.862Z,17.44
2022-10-17T18:06:33.313Z,17.47
2022-10-17T18:09:00.012Z,17.46
2022-10-17T18:11:27.212Z,17.48
2022-10-17T18:14:05.664Z,17.52
2022-10-17T18:16:33.629Z,17.52
2022-10-17T18:19:04.316Z,17.54
2022-10-17T18:21:33.862Z,17.54
2022-10-17T18:24:00.403Z,17.56
2022-10-17T18:26:27.168Z,17.59
2022-10-17T18:28:53.776Z,17.58
2022-10-17T18:31:28.200Z,17.63
2022-10-17T18:33:56.731Z,17.62
2022-10-17T18:36:23.415Z,17.63
2022-10-17T18:38:49.919Z,17.60
2022-10-17T18:41:23.184Z,17.60
2022-10-17T18:43:50.534Z,17.63
2022-10-17T18:46:22.514Z,17.62
2022-10-17T18:48:49.813Z,17.63
2022-10-17T18:51:18.524Z,17.72
2022-10-17T18:53:47.741Z,17.75
2022-10-17T18:56:14.502Z,17.75
2022-10-17T18:58:41.319Z,17.78
2022-10-17T19:01:15.511Z,17.80
2022-10-17T19:03:48.541Z,17.86
2022-10-17T19:06:17.779Z,17.92
2022-10-17T19:08:44.977Z,18.00
2022-10-17T19:11:17.024Z,18.02
2022-10-17T19:13:47.183Z,18.01
2022-10-17T19:16:20.271Z,18.08
2022-10-17T19:19:01.662Z,18.07
2022-10-17T19:21:28.159Z,18.05
2022-10-17T19:23:59.350Z,18.05
2022-10-17T19:26:27.525Z,18.09
2022-10-17T19:28:54.410Z,18.11
2022-10-17T19:31:26.528Z,18.13
2022-10-17T19:33:54.880Z,18.15
2022-10-17T19:36:28.872Z,18.19
2022-10-17T19:38:58.850Z,18.21
2022-10-17T19:41:25.720Z,18.23
2022-10-17T19:43:52.228Z,18.18
2022-10-17T19:46:21.678Z,18.23
2022-10-17T19:48:49.563Z,18.30
2022-10-17T19:51:19.025Z,18.27
2022-10-17T19:53:46.241Z,18.28
2022-10-17T19:56:12.967Z,18.31
2022-10-17T19:58:46.424Z,18.38
2022-10-17T20:01:19.273Z,18.27
2022-10-17T20:03:46.101Z,18.34
2022-10-17T20:06:12.565Z,18.32
2022-10-17T20:08:43.145Z,18.30
2022-10-17T20:11:13.965Z,18.21
2022-10-17T20:13:43.088Z,18.33
2022-10-17T20:16:13.524Z,18.33
2022-10-17T20:18:41.187Z,18.26
2022-10-17T20:21:13.436Z,18.19
2022-10-17T20:23:40.557Z,18.38
2022-10-17T20:26:25.929Z,18.31
2022-10-17T20:29:02.139Z,18.31
2022-10-17T20:31:29.255Z,18.35
2022-10-17T20:33:59.687Z,18.27
2022-10-17T20:36:26.539Z,18.31
2022-10-17T20:38:57.416Z,18.28
2022-10-17T20:41:24.873Z,18.14
2022-10-17T20:43:52.355Z,18.14
2022-10-17T20:46:34.953Z,18.16
2022-10-17T20:49:03.284Z,18.19
2022-10-17T20:51:29.750Z,18.19
2022-10-17T20:56:26.584Z,18.19
2022-10-17T20:58:55.350Z,18.31
2022-10-17T21:01:23.051Z,18.39
2022-10-17T21:03:49.913Z,18.32
2022-10-17T21:06:17.585Z,18.33
2022-10-17T21:08:45.271Z,18.21
2022-10-17T21:11:19.737Z,18.27
2022-10-17T21:13:47.899Z,18.32
2022-10-17T21:16:18.381Z,18.23
2022-10-17T21:18:45.198Z,18.22
2022-10-17T21:21:20.074Z,18.34
2022-10-17T21:23:48.218Z,18.18
2022-10-17T21:26:15.718Z,18.21
2022-10-17T21:28:43.110Z,18.17
2022-10-17T21:31:26.646Z,18.17
2022-10-17T21:33:56.016Z,18.12
2022-10-17T21:36:23.958Z,18.16
2022-10-17T21:38:52.653Z,18.06
2022-10-17T21:41:20.790Z,18.00
2022-10-17T21:43:47.860Z,17.96
2022-10-17T21:46:18.053Z,17.99
2022-10-17T21:48:45.602Z,17.95
2022-10-17T21:51:14.133Z,18.01
2022-10-17T21:53:40.961Z,17.97
2022-10-17T21:56:11.180Z,18.01
2022-10-17T21:58:37.948Z,18.02
2022-10-17T22:01:08.363Z,18.06
2022-10-17T22:03:36.312Z,18.10
2022-10-17T22:06:34.545Z,18.15
2022-10-17T22:08:53.378Z,18.10
2022-10-17T22:11:28.547Z,18.23
2022-10-17T22:14:00.707Z,18.26
2022-10-17T22:16:27.482Z,18.21
2022-10-17T22:19:03.115Z,18.13
2022-10-17T22:21:34.116Z,18.27
2022-10-17T22:24:02.260Z,18.29
2022-10-17T22:26:30.486Z,18.35
2022-10-17T22:28:57.114Z,18.36
2022-10-17T22:31:23.617Z,18.28
2022-10-17T22:33:50.052Z,18.32
2022-10-17T22:36:16.984Z,18.29
2022-10-17T22:38:43.411Z,18.27
2022-10-17T22:41:09.876Z,18.20
2022-10-17T22:43:36.364Z,18.24
2022-10-17T22:46:04.926Z,18.20
2022-10-17T22:48:31.679Z,18.17
2022-10-17T22:50:59.120Z,18.21
2022-10-17T22:53:26.804Z,18.11
2022-10-17T22:56:08.009Z,18.20
2022-10-17T22:58:35.610Z,18.11
2022-10-17T23:01:02.659Z,18.04
2022-10-17T23:03:30.490Z,17.92
2022-10-17T23:05:57.523Z,17.94
2022-10-17T23:08:24.658Z,17.98
2022-10-17T23:10:51.157Z,17.93
2022-10-17T23:13:18.703Z,17.83
2022-10-17T23:15:45.516Z,17.82
2022-10-17T23:18:11.985Z,17.76
2022-10-17T23:20:38.480Z,17.82
2022-10-17T23:23:05.052Z,17.78
2022-10-17T23:25:33.668Z,17.78
2022-10-17T23:28:00.574Z,17.66
2022-10-17T23:30:27.100Z,17.61
2022-10-17T23:32:53.613Z,17.63
2022-10-17T23:35:20.083Z,17.62
2022-10-17T23:38:05.346Z,17.58
2022-10-17T23:40:31.845Z,17.48
2022-10-17T23:42:58.268Z,17.53
2022-10-17T23:45:24.769Z,17.45
2022-10-17T23:47:51.245Z,17.42
2022-10-17T23:50:17.755Z,17.35
2022-10-17T23:52:44.250Z,17.28
2022-10-17T23:55:10.855Z,17.23
2022-10-17T23:57:37.294Z,17.27
